createdAt,value
2023-04-06T00:00:29.591Z,100741.91
2023-04-06T00:02:57.440Z,100738.34
2023-04-06T00:05:25.431Z,100742.78
2023-04-06T00:07:55.239Z,100736.63
2023-04-06T00:10:22.999Z,100741.03
2023-04-06T00:12:50.898Z,100734.88
2023-04-06T00:15:18.713Z,100737.50
2023-04-06T00:17:46.448Z,100737.50
2023-04-06T00:20:14.314Z,100736.63
2023-04-06T00:22:42.226Z,100730.53
2023-04-06T00:25:11.404Z,100731.41
2023-04-06T00:27:39.895Z,100727.03
2023-04-06T00:30:08.846Z,100722.69
2023-04-06T00:32:37.254Z,100726.22
2023-04-06T00:35:06.547Z,100733.22
2023-04-06T00:37:34.412Z,100721.88
2023-04-06T00:40:02.311Z,100728.84
2023-04-06T00:42:30.691Z,100728.84
2023-04-06T00:45:01.608Z,100730.59
2023-04-06T00:47:29.694Z,100730.69
2023-04-06T00:49:58.606Z,100718.38
2023-04-06T00:52:26.584Z,100729.81
2023-04-06T00:54:55.433Z,100717.50
2023-04-06T00:57:24.125Z,100717.47
2023-04-06T00:59:57.150Z,100708.66
2023-04-06T01:02:26.676Z,100712.19
2023-04-06T01:04:55.864Z,100709.63
2023-04-06T01:07:32.692Z,100702.59
2023-04-06T01:10:09.200Z,100710.50
2023-04-06T01:12:39.760Z,100720.19
2023-04-06T01:15:14.617Z,100714.06
2023-04-06T01:17:44.937Z,100717.59
2023-04-06T01:20:16.692Z,100711.47
2023-04-06T01:22:44.824Z,100707.97
2023-04-06T01:25:14.216Z,100707.09
2023-04-06T01:27:49.181Z,100708.84
2023-04-06T01:30:23.856Z,100711.50
2023-04-06T01:32:55.585Z,100710.69
2023-04-06T01:35:37.966Z,100703.66
2023-04-06T01:38:18.624Z,100701.06
2023-04-06T01:40:48.625Z,100691.38
2023-04-06T01:43:19.017Z,100697.50
2023-04-06T01:46:00.487Z,100699.28
2023-04-06T01:48:33.904Z,100691.38
2023-04-06T01:51:07.764Z,100696.66
2023-04-06T01:53:42.771Z,100685.25
2023-04-06T01:56:11.203Z,100684.34
2023-04-06T01:58:44.538Z,100678.25
2023-04-06T02:01:14.970Z,100688.75
2023-04-06T02:03:53.382Z,100697.53
2023-04-06T02:06:21.662Z,100688.78
2023-04-06T02:08:50.225Z,100676.53
2023-04-06T02:11:18.235Z,100692.31
2023-04-06T02:13:49.859Z,100700.22
2023-04-06T02:16:18.894Z,100697.63
2023-04-06T02:18:47.784Z,100700.25
2023-04-06T02:21:18.540Z,100690.63
2023-04-06T02:23:48.228Z,100687.16
2023-04-06T02:26:16.607Z,100694.16
2023-04-06T02:28:44.526Z,100687.16
2023-04-06T02:31:12.438Z,100690.66
2023-04-06T02:33:40.732Z,100686.25
2023-04-06T02:36:09.245Z,100674.84
2023-04-06T02:38:37.200Z,100678.28
2023-04-06T02:41:05.113Z,100680.00
2023-04-06T02:43:34.408Z,100683.50
2023-04-06T02:46:07.530Z,100672.97
2023-04-06T02:48:39.432Z,100662.41
2023-04-06T02:51:07.418Z,100674.69
2023-04-06T02:53:36.300Z,100670.31
2023-04-06T02:56:04.506Z,100669.41
2023-04-06T02:58:44.421Z,100663.34
2023-04-06T03:01:12.415Z,100657.25
2023-04-06T03:03:42.257Z,100668.66
2023-04-06T03:06:16.745Z,100670.44
2023-04-06T03:08:44.879Z,100659.91
2023-04-06T03:11:12.994Z,100659.06
2023-04-06T03:13:43.491Z,100671.38
2023-04-06T03:16:12.225Z,100673.13
2023-04-06T03:18:40.427Z,100674.03
2023-04-06T03:21:08.403Z,100672.28
2023-04-06T03:23:45.953Z,100671.41
2023-04-06T03:26:14.055Z,100681.06
2023-04-06T03:28:41.800Z,100674.06
2023-04-06T03:31:09.811Z,100675.81
2023-04-06T03:33:52.963Z,100675.84
2023-04-06T03:36:27.775Z,100686.38
2023-04-06T03:38:58.085Z,100682.88
2023-04-06T03:41:26.442Z,100684.59
2023-04-06T03:44:09.685Z,100664.44
2023-04-06T03:46:38.800Z,100688.13
2023-04-06T03:49:07.573Z,100676.72
2023-04-06T03:51:36.250Z,100686.38
2023-04-06T03:54:05.684Z,100689.91
2023-04-06T03:56:33.904Z,100689.00
2023-04-06T03:59:02.936Z,100694.28
2023-04-06T04:01:31.002Z,100680.22
2023-04-06T04:03:58.963Z,100688.09
2023-04-06T04:06:27.007Z,100696.00
2023-04-06T04:08:54.854Z,100692.50
2023-04-06T04:11:22.921Z,100696.00
2023-04-06T04:13:56.978Z,100681.13
2023-04-06T04:16:25.102Z,100693.38
2023-04-06T04:18:53.222Z,100706.53
2023-04-06T04:21:21.125Z,100695.13
2023-04-06T04:23:49.241Z,100696.88
2023-04-06T04:26:17.030Z,100714.44
2023-04-06T04:28:47.107Z,100717.94
2023-04-06T04:31:19.146Z,100712.66
2023-04-06T04:34:10.721Z,100721.44
2023-04-06T04:36:59.773Z,100726.69
2023-04-06T04:39:59.732Z,100716.16
2023-04-06T04:42:29.435Z,100707.41
2023-04-06T04:45:00.294Z,100717.06
2023-04-06T04:47:37.359Z,100723.19
2023-04-06T04:50:07.743Z,100722.31
2023-04-06T04:52:39.303Z,100724.94
2023-04-06T04:55:16.276Z,100727.56
2023-04-06T04:57:47.438Z,100723.19
2023-04-06T05:00:17.178Z,100726.69
2023-04-06T05:02:47.538Z,100728.44
2023-04-06T05:05:20.313Z,100737.22
2023-04-06T05:07:48.478Z,100729.31
2023-04-06T05:10:26.844Z,100731.97
2023-04-06T05:13:01.014Z,100730.19
2023-04-06T05:15:29.569Z,100731.97
2023-04-06T05:18:07.624Z,100745.09
2023-04-06T05:20:37.387Z,100750.38
2023-04-06T05:23:05.612Z,100746.88
2023-04-06T05:25:33.941Z,100739.84
2023-04-06T05:28:15.274Z,100745.09
2023-04-06T05:30:44.942Z,100755.69
2023-04-06T05:33:13.872Z,100745.16
2023-04-06T05:36:02.090Z,100753.03
2023-04-06T05:38:30.446Z,100754.78
2023-04-06T05:41:03.047Z,100752.13
2023-04-06T05:43:33.754Z,100752.13
2023-04-06T05:46:02.243Z,100755.63
2023-04-06T05:48:34.277Z,100749.47
2023-04-06T05:51:07.100Z,100749.50
2023-04-06T05:53:47.426Z,100760.00
2023-04-06T05:56:15.462Z,100769.66
2023-04-06T05:58:43.922Z,100761.75
2023-04-06T06:01:14.487Z,100761.75
2023-04-06T06:03:47.668Z,100759.97
2023-04-06T06:06:16.251Z,100759.09
2023-04-06T06:09:04.469Z,100768.72
2023-04-06T06:11:40.257Z,100759.94
2023-04-06T06:14:08.295Z,100752.03
2023-04-06T06:16:40.447Z,100761.72
2023-04-06T06:19:09.752Z,100765.16
2023-04-06T06:21:38.721Z,100764.28
2023-04-06T06:24:10.660Z,100771.25
2023-04-06T06:26:40.358Z,100760.75
2023-04-06T06:29:10.208Z,100772.13
2023-04-06T06:31:40.199Z,100767.75
2023-04-06T06:34:08.665Z,100761.53
2023-04-06T06:36:38.354Z,100756.25
2023-04-06T06:39:09.779Z,100753.56
2023-04-06T06:41:42.839Z,100748.25
2023-04-06T06:44:11.882Z,100752.56
2023-04-06T06:46:39.896Z,100754.19
2023-04-06T06:49:07.862Z,100755.91
2023-04-06T06:51:38.981Z,100747.00
2023-04-06T06:54:07.568Z,100743.44
2023-04-06T06:56:38.956Z,100752.06
2023-04-06T06:59:08.383Z,100751.13
2023-04-06T07:01:38.015Z,100756.22
2023-04-06T07:04:06.266Z,100752.59
2023-04-06T07:06:36.226Z,100748.13
2023-04-06T07:09:07.998Z,100754.13
2023-04-06T07:11:35.824Z,100746.13
2023-04-06T07:14:04.093Z,100752.97
2023-04-06T07:16:32.074Z,100740.56
2023-04-06T07:19:00.965Z,100747.41
2023-04-06T07:21:32.817Z,100748.22
2023-04-06T07:24:00.868Z,100734.88
2023-04-06T07:26:31.442Z,100748.75
2023-04-06T07:28:59.459Z,100740.75
2023-04-06T07:31:27.644Z,100752.84
2023-04-06T07:33:58.258Z,100759.75
2023-04-06T07:36:26.880Z,100744.63
2023-04-06T07:38:54.745Z,100750.66
2023-04-06T07:41:24.970Z,100750.50
2023-04-06T07:43:53.073Z,100749.44
2023-04-06T07:46:21.261Z,100750.22
2023-04-06T07:48:50.934Z,100744.78
2023-04-06T07:51:19.070Z,100755.22
2023-04-06T07:53:48.365Z,100739.19
2023-04-06T07:56:16.506Z,100747.84
2023-04-06T07:58:48.722Z,100741.56
2023-04-06T08:01:16.708Z,100747.56
2023-04-06T08:03:44.887Z,100744.72
2023-04-06T08:06:13.184Z,100748.03
2023-04-06T08:08:41.240Z,100746.94
2023-04-06T08:11:09.325Z,100739.75
2023-04-06T08:13:37.061Z,100744.78
2023-04-06T08:16:07.623Z,100735.03
2023-04-06T08:18:35.898Z,100743.72
2023-04-06T08:21:03.869Z,100747.06
2023-04-06T08:23:32.770Z,100741.59
2023-04-06T08:26:00.706Z,100744.03
2023-04-06T08:28:30.086Z,100749.25
2023-04-06T08:30:58.341Z,100743.91
2023-04-06T08:33:26.482Z,100747.19
2023-04-06T08:35:54.321Z,100745.31
2023-04-06T08:38:22.223Z,100741.59
2023-04-06T08:40:52.610Z,100733.44
2023-04-06T08:43:24.294Z,100740.31
2023-04-06T08:45:52.578Z,100740.06
2023-04-06T08:48:21.950Z,100737.25
2023-04-06T08:50:50.469Z,100737.88
2023-04-06T08:53:19.763Z,100737.53
2023-04-06T08:55:49.098Z,100736.50
2023-04-06T08:58:27.550Z,100732.66
2023-04-06T09:01:09.947Z,100742.13
2023-04-06T09:03:41.273Z,100729.53
2023-04-06T09:06:11.325Z,100724.94
2023-04-06T09:08:41.817Z,100723.63
2023-04-06T09:11:10.166Z,100730.50
2023-04-06T09:13:51.230Z,100730.16
2023-04-06T09:16:20.073Z,100738.00
2023-04-06T09:18:49.085Z,100724.44
2023-04-06T09:21:23.579Z,100724.97
2023-04-06T09:24:05.620Z,100715.81
2023-04-06T09:26:34.862Z,100723.50
2023-04-06T09:29:04.391Z,100727.69
2023-04-06T09:31:35.884Z,100721.19
2023-04-06T09:34:05.507Z,100700.81
2023-04-06T09:36:39.516Z,100719.69
2023-04-06T09:39:09.330Z,100722.13
2023-04-06T09:41:37.644Z,100714.78
2023-04-06T09:44:11.127Z,100715.41
2023-04-06T09:46:58.784Z,100710.88
2023-04-06T09:49:34.282Z,100708.69
2023-04-06T09:52:05.453Z,100706.72
2023-04-06T09:54:34.032Z,100698.72
2023-04-06T09:57:19.398Z,100699.22
2023-04-06T10:00:05.122Z,100706.78
2023-04-06T10:03:12.529Z,100704.91
2023-04-06T10:06:02.036Z,100695.09
2023-04-06T10:08:33.066Z,100693.00
2023-04-06T10:11:01.975Z,100690.81
2023-04-06T10:13:31.294Z,100702.84
2023-04-06T10:16:02.447Z,100683.91
2023-04-06T10:18:31.409Z,100691.34
2023-04-06T10:21:27.895Z,100697.13
2023-04-06T10:24:01.784Z,100690.63
2023-04-06T10:26:31.135Z,100680.72
2023-04-06T10:29:06.672Z,100683.00
2023-04-06T10:31:41.722Z,100682.75
2023-04-06T10:34:09.776Z,100688.72
2023-04-06T10:36:38.837Z,100682.13
2023-04-06T10:39:07.630Z,100683.69
2023-04-06T10:41:46.204Z,100686.03
2023-04-06T10:44:27.216Z,100676.94
2023-04-06T10:47:03.956Z,100671.50
2023-04-06T10:49:32.081Z,100670.25
2023-04-06T10:52:00.226Z,100670.00
2023-04-06T10:54:31.191Z,100672.28
2023-04-06T10:56:59.263Z,100666.66
2023-04-06T10:59:30.638Z,100654.34
2023-04-06T11:02:00.944Z,100653.91
2023-04-06T11:04:28.731Z,100658.09
2023-04-06T11:06:56.669Z,100656.59
2023-04-06T11:09:32.564Z,100652.63
2023-04-06T11:12:01.859Z,100653.22
2023-04-06T11:14:29.892Z,100660.09
2023-04-06T11:16:57.947Z,100653.47
2023-04-06T11:19:26.162Z,100645.22
2023-04-06T11:21:54.182Z,100637.94
2023-04-06T11:24:25.013Z,100637.19
2023-04-06T11:26:58.255Z,100635.97
2023-04-06T11:29:31.874Z,100635.66
2023-04-06T11:32:05.681Z,100631.03
2023-04-06T11:34:39.566Z,100624.19
2023-04-06T11:37:12.779Z,100630.91
2023-04-06T11:39:53.410Z,100620.75
2023-04-06T11:42:29.015Z,100612.63
2023-04-06T11:44:59.882Z,100617.28
2023-04-06T11:47:35.944Z,100615.72
2023-04-06T11:50:13.620Z,100602.75
2023-04-06T11:52:44.288Z,100602.44
2023-04-06T11:55:18.549Z,100594.00
2023-04-06T11:57:48.743Z,100597.97
2023-04-06T12:00:18.265Z,100592.22
2023-04-06T12:02:50.340Z,100594.09
2023-04-06T12:05:29.639Z,100593.13
2023-04-06T12:08:01.093Z,100591.91
2023-04-06T12:10:31.445Z,100573.94
2023-04-06T12:13:03.285Z,100588.69
2023-04-06T12:15:33.710Z,100590.06
2023-04-06T12:18:01.700Z,100588.94
2023-04-06T12:20:30.898Z,100582.38
2023-04-06T12:22:58.872Z,100578.66
2023-04-06T12:25:27.057Z,100568.53
2023-04-06T12:27:55.517Z,100576.44
2023-04-06T12:30:25.097Z,100576.06
2023-04-06T12:32:53.013Z,100576.63
2023-04-06T12:35:24.020Z,100566.56
2023-04-06T12:37:51.957Z,100570.28
2023-04-06T12:40:20.016Z,100561.38
2023-04-06T12:42:48.097Z,100564.66
2023-04-06T12:45:16.053Z,100565.50
2023-04-06T12:47:44.143Z,100567.59
2023-04-06T12:50:12.194Z,100566.84
2023-04-06T12:52:40.356Z,100569.53
2023-04-06T12:55:09.701Z,100564.91
2023-04-06T12:57:38.203Z,100569.53
2023-04-06T13:00:10.055Z,100557.13
2023-04-06T13:02:40.111Z,100553.56
2023-04-06T13:05:08.538Z,100563.44
2023-04-06T13:07:37.398Z,100555.19
2023-04-06T13:10:07.611Z,100544.38
2023-04-06T13:12:37.435Z,100545.25
2023-04-06T13:15:06.741Z,100542.47
2023-04-06T13:17:34.615Z,100547.84
2023-04-06T13:20:05.072Z,100544.78
2023-04-06T13:22:39.813Z,100550.00
2023-04-06T13:25:08.262Z,100551.56
2023-04-06T13:27:36.754Z,100542.63
2023-04-06T13:30:06.734Z,100539.09
2023-04-06T13:32:36.243Z,100539.09
2023-04-06T13:35:04.827Z,100531.97
2023-04-06T13:37:33.325Z,100534.59
2023-04-06T13:40:02.509Z,100531.03
2023-04-06T13:42:30.564Z,100532.16
2023-04-06T13:44:59.113Z,100529.13
2023-04-06T13:47:27.586Z,100527.03
2023-04-06T13:49:57.058Z,100528.41
2023-04-06T13:52:25.124Z,100521.13
2023-04-06T13:54:53.531Z,100523.81
2023-04-06T13:57:21.461Z,100518.16
2023-04-06T13:59:51.536Z,100519.72
2023-04-06T14:02:21.577Z,100504.34
2023-04-06T14:04:50.001Z,100524.34
2023-04-06T14:07:17.988Z,100516.81
2023-04-06T14:09:45.898Z,100529.75
2023-04-06T14:12:14.077Z,100515.34
2023-04-06T14:14:42.000Z,100511.03
2023-04-06T14:17:10.358Z,100501.72
2023-04-06T14:19:39.703Z,100514.97
2023-04-06T14:22:09.517Z,100516.81
2023-04-06T14:24:39.481Z,100516.75
2023-04-06T14:27:09.553Z,100516.88
2023-04-06T14:29:38.457Z,100519.00
2023-04-06T14:32:08.891Z,100505.56
2023-04-06T14:34:41.675Z,100504.44
2023-04-06T14:37:09.630Z,100520.03
2023-04-06T14:39:37.743Z,100507.47
2023-04-06T14:42:07.238Z,100507.34
2023-04-06T14:44:37.618Z,100506.59
2023-04-06T14:47:06.462Z,100504.88
2023-04-06T14:49:34.323Z,100504.66
2023-04-06T14:52:02.172Z,100487.88
2023-04-06T14:54:30.654Z,100499.78
2023-04-06T14:56:58.663Z,100493.53
2023-04-06T14:59:26.615Z,100509.47
2023-04-06T15:01:54.688Z,100510.44
2023-04-06T15:04:41.354Z,100499.00
2023-04-06T15:07:29.453Z,100492.75
2023-04-06T15:10:17.887Z,100497.97
2023-04-06T15:13:06.599Z,100499.09
2023-04-06T15:15:55.041Z,100499.38
2023-04-06T15:18:43.529Z,100497.13
2023-04-06T15:21:33.476Z,100506.53
2023-04-06T15:24:21.706Z,100497.97
2023-04-06T15:27:09.828Z,100498.06
2023-04-06T15:29:59.542Z,100475.91
2023-04-06T15:33:04.502Z,100498.47
2023-04-06T15:35:52.816Z,100494.31
2023-04-06T15:38:40.975Z,100498.63
2023-04-06T15:41:29.252Z,100491.66
2023-04-06T15:44:17.642Z,100498.25
2023-04-06T15:47:06.038Z,100495.06
2023-04-06T15:49:54.070Z,100501.56
2023-04-06T15:52:42.259Z,100497.34
2023-04-06T15:55:30.884Z,100506.34
2023-04-06T15:58:19.171Z,100496.66
2023-04-06T16:01:16.906Z,100496.56
2023-04-06T16:04:09.258Z,100499.44
2023-04-06T16:06:57.579Z,100498.94
2023-04-06T16:09:46.124Z,100500.75
2023-04-06T16:12:34.409Z,100495.75
2023-04-06T16:15:22.796Z,100501.22
2023-04-06T16:17:52.029Z,100496.97
2023-04-06T16:20:20.546Z,100496.88
2023-04-06T16:22:49.728Z,100500.78
2023-04-06T16:25:17.702Z,100499.06
2023-04-06T16:27:46.083Z,100494.81
2023-04-06T16:30:14.826Z,100502.00
2023-04-06T16:32:43.478Z,100500.81
2023-04-06T16:35:13.872Z,100500.47
2023-04-06T16:38:03.224Z,100495.50
2023-04-06T16:41:04.208Z,100498.38
2023-04-06T16:43:52.054Z,100504.44
2023-04-06T16:46:41.641Z,100497.44
2023-04-06T16:49:09.476Z,100501.03
2023-04-06T16:52:01.975Z,100509.69
2023-04-06T16:54:50.756Z,100505.03
2023-04-06T16:57:38.814Z,100507.34
2023-04-06T17:00:26.560Z,100502.31
2023-04-06T17:02:56.146Z,100501.63
2023-04-06T17:05:45.301Z,100502.97
2023-04-06T17:08:13.147Z,100524.34
2023-04-06T17:10:58.018Z,100511.25
2023-04-06T17:13:28.698Z,100520.88
2023-04-06T17:15:57.402Z,100521.91
2023-04-06T17:18:30.588Z,100506.22
2023-04-06T17:21:07.517Z,100520.50
2023-04-06T17:23:36.188Z,100524.91
2023-04-06T17:26:07.961Z,100524.28
2023-04-06T17:28:36.178Z,100524.69
2023-04-06T17:31:10.513Z,100520.03
2023-04-06T17:33:40.217Z,100527.38
2023-04-06T17:36:12.464Z,100531.09
2023-04-06T17:38:44.109Z,100504.91
2023-04-06T17:41:13.745Z,100520.75
2023-04-06T17:43:42.052Z,100526.97
2023-04-06T17:46:10.520Z,100535.56
2023-04-06T17:48:38.617Z,100542.50
2023-04-06T17:51:06.805Z,100546.19
2023-04-06T17:53:34.877Z,100543.91
2023-04-06T17:56:04.444Z,100537.97
2023-04-06T17:58:32.817Z,100548.91
2023-04-06T18:01:08.596Z,100544.53
2023-04-06T18:03:36.913Z,100544.75
2023-04-06T18:06:16.251Z,100558.78
2023-04-06T18:08:44.100Z,100553.97
2023-04-06T18:11:19.115Z,100559.88
2023-04-06T18:13:47.437Z,100563.66
2023-04-06T18:16:19.081Z,100571.53
2023-04-06T18:18:47.510Z,100575.94
2023-04-06T18:21:15.568Z,100567.13
2023-04-06T18:23:43.339Z,100565.53
2023-04-06T18:26:18.093Z,100578.47
2023-04-06T18:28:47.310Z,100581.47
2023-04-06T18:31:15.825Z,100581.69
2023-04-06T18:33:44.002Z,100592.63
2023-04-06T18:36:11.869Z,100584.03
2023-04-06T18:38:46.084Z,100578.72
2023-04-06T18:41:14.932Z,100586.34
2023-04-06T18:43:42.784Z,100596.19
2023-04-06T18:46:15.535Z,100596.19
2023-04-06T18:48:43.864Z,100592.97
2023-04-06T18:51:11.778Z,100597.53
2023-04-06T18:53:40.648Z,100598.47
2023-04-06T18:56:19.943Z,100600.16
2023-04-06T18:58:49.191Z,100605.75
2023-04-06T19:01:32.771Z,100615.47
2023-04-06T19:04:01.862Z,100612.06
2023-04-06T19:06:29.963Z,100609.47
2023-04-06T19:08:58.888Z,100611.31
2023-04-06T19:11:27.337Z,100608.09
2023-04-06T19:13:55.401Z,100616.97
2023-04-06T19:16:25.192Z,100619.00
2023-04-06T19:18:53.364Z,100607.44
2023-04-06T19:21:26.392Z,100614.31
2023-04-06T19:23:55.901Z,100618.22
2023-04-06T19:26:27.874Z,100620.94
2023-04-06T19:28:56.110Z,100633.81
2023-04-06T19:31:24.181Z,100614.44
2023-04-06T19:33:52.907Z,100621.63
2023-04-06T19:36:21.737Z,100620.13
2023-04-06T19:38:49.620Z,100630.03
2023-04-06T19:41:17.942Z,100633.63
2023-04-06T19:43:46.132Z,100629.28
2023-04-06T19:46:15.417Z,100627.69
2023-04-06T19:48:43.579Z,100632.16
2023-04-06T19:51:11.496Z,100629.69
2023-04-06T19:53:39.326Z,100637.78
2023-04-06T19:56:07.250Z,100628.94
2023-04-06T19:58:35.310Z,100627.28
2023-04-06T20:01:04.417Z,100633.59
2023-04-06T20:03:33.169Z,100629.31
2023-04-06T20:06:03.922Z,100637.19
2023-04-06T20:08:32.194Z,100635.06
2023-04-06T20:11:07.533Z,100639.19
2023-04-06T20:13:37.004Z,100635.63
2023-04-06T20:16:05.385Z,100629.59
2023-04-06T20:18:33.688Z,100633.03
2023-04-06T20:21:01.582Z,100636.59
2023-04-06T20:23:29.729Z,100625.16
2023-04-06T20:25:57.880Z,100621.56
2023-04-06T20:28:25.926Z,100633.91
2023-04-06T20:30:54.934Z,100625.09
2023-04-06T20:33:24.042Z,100628.69
2023-04-06T20:36:01.260Z,100626.09
2023-04-06T20:41:02.371Z,100628.84
2023-04-06T20:43:31.745Z,100630.78
2023-04-06T20:46:02.400Z,100626.44
2023-04-06T20:48:33.452Z,100617.59
2023-04-06T20:51:04.828Z,100623.88
2023-04-06T20:53:32.860Z,100611.59
2023-04-06T20:56:02.991Z,100616.94
2023-04-06T20:58:31.188Z,100614.25
2023-04-06T21:00:59.024Z,100613.50
2023-04-06T21:03:27.172Z,100607.47
2023-04-06T21:05:57.520Z,100610.06
2023-04-06T21:08:25.661Z,100611.13
2023-04-06T21:10:54.868Z,100599.63
2023-04-06T21:13:22.830Z,100586.56
2023-04-06T21:15:51.722Z,100576.25
2023-04-06T21:18:21.013Z,100573.78
2023-04-06T21:20:49.174Z,100575.84
2023-04-06T21:23:17.100Z,100569.75
2023-04-06T21:25:45.280Z,100569.16
2023-04-06T21:28:13.281Z,100567.47
2023-04-06T21:30:42.353Z,100565.88
2023-04-06T21:33:11.677Z,100576.56
2023-04-06T21:35:41.888Z,100557.19
2023-04-06T21:38:10.047Z,100556.38
2023-04-06T21:40:38.709Z,100557.50
2023-04-06T21:43:06.884Z,100563.78
2023-04-06T21:45:35.810Z,100555.97
2023-04-06T21:48:04.598Z,100563.97
2023-04-06T21:50:32.406Z,100559.69
2023-04-06T21:53:00.287Z,100558.06
2023-04-06T21:55:28.141Z,100549.38
2023-04-06T21:57:56.272Z,100547.03
2023-04-06T22:00:24.117Z,100560.22
2023-04-06T22:02:52.294Z,100561.25
2023-04-06T22:05:20.621Z,100552.38
2023-04-06T22:07:48.480Z,100545.34
2023-04-06T22:10:16.209Z,100539.94
2023-04-06T22:12:44.155Z,100546.16
2023-04-06T22:15:13.249Z,100543.53
2023-04-06T22:17:41.027Z,100534.75
2023-04-06T22:20:09.412Z,100532.25
2023-04-06T22:22:37.446Z,100518.31
2023-04-06T22:25:06.564Z,100509.72
2023-04-06T22:27:34.372Z,100522.13
2023-04-06T22:30:03.223Z,100515.31
2023-04-06T22:32:31.115Z,100508.25
2023-04-06T22:35:18.940Z,100508.50
2023-04-06T22:37:46.943Z,100515.50
2023-04-06T22:40:14.907Z,100518.22
2023-04-06T22:42:42.795Z,100517.31
2023-04-06T22:45:11.309Z,100506.59
2023-04-06T22:47:41.531Z,100508.25
2023-04-06T22:50:10.015Z,100512.66
2023-04-06T22:52:38.454Z,100493.84
2023-04-06T22:55:06.812Z,100504.41
2023-04-06T22:57:34.617Z,100490.25
2023-04-06T23:00:07.123Z,100494.59
2023-04-06T23:02:35.159Z,100493.66
2023-04-06T23:05:03.159Z,100499.66
2023-04-06T23:07:32.791Z,100498.81
2023-04-06T23:10:01.037Z,100495.16
2023-04-06T23:12:29.149Z,100486.22
2023-04-06T23:14:56.889Z,100476.72
2023-04-06T23:17:25.872Z,100490.81
2023-04-06T23:19:54.074Z,100489.94
2023-04-06T23:22:22.236Z,100475.81
2023-04-06T23:24:50.192Z,100489.06
2023-04-06T23:27:18.017Z,100485.47
2023-04-06T23:29:46.413Z,100489.00
2023-04-06T23:32:14.785Z,100484.41
2023-04-06T23:34:42.685Z,100481.81
2023-04-06T23:37:11.726Z,100479.00
2023-04-06T23:39:39.591Z,100469.38
2023-04-06T23:42:07.602Z,100478.91
2023-04-06T23:44:35.373Z,100473.56
2023-04-06T23:47:03.163Z,100465.63
2023-04-06T23:49:31.201Z,100471.75
2023-04-06T23:51:59.208Z,100460.22
2023-04-06T23:54:27.348Z,100455.69
2023-04-06T23:56:55.888Z,100463.63
2023-04-06T23:59:24.595Z,100466.31
